sensor_id;sensor_type;location;lat;lon;timestamp;pressure;altitude;pressure_sealevel;temperature;humidity
51617;BME280;37697;52.588;13.394;2023-03-14T00:01:53;98704.15;;;11.65;79.00
51617;BME280;37697;52.588;13.394;2023-03-14T00:06:58;98716.70;;;11.60;79.12
51617;BME280;37697;52.588;13.394;2023-03-14T00:12:04;98708.42;;;11.56;79.00
51617;BME280;37697;52.588;13.394;2023-03-14T00:17:10;98696.64;;;11.53;78.84
51617;BME280;37697;52.588;13.394;2023-03-14T00:22:15;98696.52;;;11.48;79.06
51617;BME280;37697;52.588;13.394;2023-03-14T00:27:21;98678.46;;;11.40;79.04
51617;BME280;37697;52.588;13.394;2023-03-14T00:32:26;98658.95;;;11.34;79.06
51617;BME280;37697;52.588;13.394;2023-03-14T00:37:52;98654.88;;;11.28;78.96
51617;BME280;37697;52.588;13.394;2023-03-14T00:43:18;98635.40;;;11.23;78.89
51617;BME280;37697;52.588;13.394;2023-03-14T00:48:45;98631.42;;;11.18;79.17
51617;BME280;37697;52.588;13.394;2023-03-14T00:54:11;98636.70;;;11.11;79.25
51617;BME280;37697;52.588;13.394;2023-03-14T00:59:37;98630.48;;;11.04;79.48
51617;BME280;37697;52.588;13.394;2023-03-14T01:05:03;98613.09;;;11.01;79.63
51617;BME280;37697;52.588;13.394;2023-03-14T01:10:29;98606.69;;;10.96;79.69
51617;BME280;37697;52.588;13.394;2023-03-14T01:15:55;98594.26;;;10.90;79.93
51617;BME280;37697;52.588;13.394;2023-03-14T01:21:22;98613.17;;;10.84;80.12
51617;BME280;37697;52.588;13.394;2023-03-14T01:26:49;98636.75;;;10.77;80.25
51617;BME280;37697;52.588;13.394;2023-03-14T01:32:14;98662.58;;;10.72;80.59
51617;BME280;37697;52.588;13.394;2023-03-14T01:37:20;98671.59;;;10.71;80.69
51617;BME280;37697;52.588;13.394;2023-03-14T01:42:36;98677.13;;;10.69;81.00
51617;BME280;37697;52.588;13.394;2023-03-14T01:48:02;98668.95;;;10.68;81.15
51617;BME280;37697;52.588;13.394;2023-03-14T01:53:10;98686.74;;;10.69;81.17
51617;BME280;37697;52.588;13.394;2023-03-14T01:58:29;98696.23;;;10.68;81.21
51617;BME280;37697;52.588;13.394;2023-03-14T02:03:50;98677.13;;;10.66;81.25
51617;BME280;37697;52.588;13.394;2023-03-14T02:09:18;98659.36;;;10.63;81.36
51617;BME280;37697;52.588;13.394;2023-03-14T02:14:44;98655.91;;;10.60;81.29
51617;BME280;37697;52.588;13.394;2023-03-14T02:20:27;98649.06;;;10.57;81.42
51617;BME280;37697;52.588;13.394;2023-03-14T02:26:00;98651.77;;;10.51;81.49
51617;BME280;37697;52.588;13.394;2023-03-14T02:31:30;98638.70;;;10.48;81.60
51617;BME280;37697;52.588;13.394;2023-03-14T02:36:56;98639.86;;;10.47;81.87
51617;BME280;37697;52.588;13.394;2023-03-14T02:42:22;98629.33;;;10.48;81.84
51617;BME280;37697;52.588;13.394;2023-03-14T02:47:51;98622.58;;;10.48;82.08
51617;BME280;37697;52.588;13.394;2023-03-14T02:53:20;98614.36;;;10.49;81.89
51617;BME280;37697;52.588;13.394;2023-03-14T02:58:47;98605.63;;;10.49;81.90
51617;BME280;37697;52.588;13.394;2023-03-14T03:04:12;98586.66;;;10.46;81.86
51617;BME280;37697;52.588;13.394;2023-03-14T03:09:38;98572.64;;;10.41;81.72
51617;BME280;37697;52.588;13.394;2023-03-14T03:15:05;98557.67;;;10.37;81.84
51617;BME280;37697;52.588;13.394;2023-03-14T03:20:22;98540.23;;;10.32;81.73
51617;BME280;37697;52.588;13.394;2023-03-14T03:25:51;98536.17;;;10.26;81.94
51617;BME280;37697;52.588;13.394;2023-03-14T03:31:17;98546.05;;;10.22;81.82
51617;BME280;37697;52.588;13.394;2023-03-14T03:36:42;98557.44;;;10.19;81.95
51617;BME280;37697;52.588;13.394;2023-03-14T03:41:56;98560.66;;;10.17;81.94
51617;BME280;37697;52.588;13.394;2023-03-14T03:47:22;98563.74;;;10.14;82.14
51617;BME280;37697;52.588;13.394;2023-03-14T03:52:48;98569.85;;;10.13;82.09
51617;BME280;37697;52.588;13.394;2023-03-14T03:58:14;98551.89;;;10.12;81.90
51617;BME280;37697;52.588;13.394;2023-03-14T04:03:33;98544.83;;;10.09;81.95
51617;BME280;37697;52.588;13.394;2023-03-14T04:08:59;98553.11;;;10.07;81.89
51617;BME280;37697;52.588;13.394;2023-03-14T04:14:24;98557.02;;;10.03;81.84
51617;BME280;37697;52.588;13.394;2023-03-14T04:19:49;98548.67;;;10.02;81.88
51617;BME280;37697;52.588;13.394;2023-03-14T04:25:15;98548.39;;;10.00;81.75
51617;BME280;37697;52.588;13.394;2023-03-14T04:30:41;98541.65;;;9.98;81.76
51617;BME280;37697;52.588;13.394;2023-03-14T04:36:09;98537.48;;;9.98;81.66
51617;BME280;37697;52.588;13.394;2023-03-14T04:41:35;98528.23;;;9.99;81.64
51617;BME280;37697;52.588;13.394;2023-03-14T04:47:00;98515.13;;;9.99;81.46
51617;BME280;37697;52.588;13.394;2023-03-14T04:52:27;98507.02;;;9.95;81.35
51617;BME280;37697;52.588;13.394;2023-03-14T04:57:52;98495.05;;;9.92;81.26
51617;BME280;37697;52.588;13.394;2023-03-14T05:03:19;98485.19;;;9.90;81.21
51617;BME280;37697;52.588;13.394;2023-03-14T05:08:45;98500.71;;;9.90;81.26
51617;BME280;37697;52.588;13.394;2023-03-14T05:14:11;98503.86;;;9.89;81.34
51617;BME280;37697;52.588;13.394;2023-03-14T05:19:37;98493.30;;;9.91;80.99
51617;BME280;37697;52.588;13.394;2023-03-14T05:24:45;98493.30;;;9.91;80.92
51617;BME280;37697;52.588;13.394;2023-03-14T05:30:13;98478.22;;;9.91;80.88
51617;BME280;37697;52.588;13.394;2023-03-14T05:35:39;98481.77;;;9.92;80.77
51617;BME280;37697;52.588;13.394;2023-03-14T05:41:05;98479.26;;;9.92;80.58
51617;BME280;37697;52.588;13.394;2023-03-14T05:46:23;98476.53;;;9.93;80.17
51617;BME280;37697;52.588;13.394;2023-03-14T05:51:49;98481.34;;;9.93;80.32
51617;BME280;37697;52.588;13.394;2023-03-14T05:57:15;98476.17;;;9.94;80.25
51617;BME280;37697;52.588;13.394;2023-03-14T06:02:30;98480.89;;;9.94;80.07
51617;BME280;37697;52.588;13.394;2023-03-14T06:07:55;98481.98;;;9.94;79.74
51617;BME280;37697;52.588;13.394;2023-03-14T06:13:22;98477.85;;;9.95;79.74
51617;BME280;37697;52.588;13.394;2023-03-14T06:18:48;98480.71;;;9.99;79.30
51617;BME280;37697;52.588;13.394;2023-03-14T06:24:13;98472.42;;;10.04;79.17
51617;BME280;37697;52.588;13.394;2023-03-14T06:29:39;98470.92;;;10.10;78.90
51617;BME280;37697;52.588;13.394;2023-03-14T06:35:06;98480.64;;;10.15;78.71
51617;BME280;37697;52.588;13.394;2023-03-14T06:40:32;98480.68;;;10.24;78.30
51617;BME280;37697;52.588;13.394;2023-03-14T06:45:49;98481.02;;;10.30;78.06
51617;BME280;37697;52.588;13.394;2023-03-14T06:51:15;98502.00;;;10.40;77.63
51617;BME280;37697;52.588;13.394;2023-03-14T06:56:41;98504.57;;;10.48;77.46
51617;BME280;37697;52.588;13.394;2023-03-14T07:01:56;98505.39;;;10.57;77.08
51617;BME280;37697;52.588;13.394;2023-03-14T07:07:21;98509.89;;;10.74;76.50
51617;BME280;37697;52.588;13.394;2023-03-14T07:12:47;98520.85;;;10.93;75.89
51617;BME280;37697;52.588;13.394;2023-03-14T07:18:00;98528.52;;;10.98;75.59
51617;BME280;37697;52.588;13.394;2023-03-14T07:23:27;98521.76;;;10.98;75.27
51617;BME280;37697;52.588;13.394;2023-03-14T07:28:52;98527.61;;;10.96;75.11
51617;BME280;37697;52.588;13.394;2023-03-14T07:34:08;98531.34;;;11.01;75.05
51617;BME280;37697;52.588;13.394;2023-03-14T07:39:34;98539.58;;;11.26;74.81
51617;BME280;37697;52.588;13.394;2023-03-14T07:45:00;98539.60;;;11.38;74.11
51617;BME280;37697;52.588;13.394;2023-03-14T07:50:17;98542.29;;;11.50;74.26
51617;BME280;37697;52.588;13.394;2023-03-14T07:55:43;98551.95;;;11.53;73.72
51617;BME280;37697;52.588;13.394;2023-03-14T08:01:09;98554.40;;;11.61;73.71
51617;BME280;37697;52.588;13.394;2023-03-14T08:06:26;98536.95;;;11.84;73.09
51617;BME280;37697;52.588;13.394;2023-03-14T08:11:51;98528.55;;;12.10;72.60
51617;BME280;37697;52.588;13.394;2023-03-14T08:17:02;98523.36;;;12.34;72.66
51617;BME280;37697;52.588;13.394;2023-03-14T08:22:28;98519.50;;;12.43;71.36
51617;BME280;37697;52.588;13.394;2023-03-14T08:27:54;98514.73;;;12.45;71.33
51617;BME280;37697;52.588;13.394;2023-03-14T08:33:10;98520.56;;;12.36;70.99
51617;BME280;37697;52.588;13.394;2023-03-14T08:38:36;98523.86;;;12.21;71.19
51617;BME280;37697;52.588;13.394;2023-03-14T08:43:55;98523.18;;;12.09;71.14
51617;BME280;37697;52.588;13.394;2023-03-14T08:49:10;98537.23;;;11.97;71.21
51617;BME280;37697;52.588;13.394;2023-03-14T08:54:26;98547.17;;;11.86;71.49
51617;BME280;37697;52.588;13.394;2023-03-14T08:59:31;98554.13;;;11.80;71.74
51617;BME280;37697;52.588;13.394;2023-03-14T09:04:46;98552.27;;;11.72;71.28
51617;BME280;37697;52.588;13.394;2023-03-14T09:10:12;98563.14;;;11.72;71.85
51617;BME280;37697;52.588;13.394;2023-03-14T09:15:38;98546.55;;;11.79;71.22
51617;BME280;37697;52.588;13.394;2023-03-14T09:21:04;98532.73;;;12.01;71.50
51617;BME280;37697;52.588;13.394;2023-03-14T09:26:21;98524.10;;;12.35;71.56
51617;BME280;37697;52.588;13.394;2023-03-14T09:31:47;98519.58;;;12.90;70.76
51617;BME280;37697;52.588;13.394;2023-03-14T09:37:13;98510.77;;;13.39;68.32
51617;BME280;37697;52.588;13.394;2023-03-14T09:42:29;98509.98;;;13.65;67.03
51617;BME280;37697;52.588;13.394;2023-03-14T09:47:57;98498.30;;;13.67;65.83
51617;BME280;37697;52.588;13.394;2023-03-14T09:53:31;98508.91;;;13.61;65.79
51617;BME280;37697;52.588;13.394;2023-03-14T09:58:56;98517.48;;;13.33;64.42
51617;BME280;37697;52.588;13.394;2023-03-14T10:04:04;98516.12;;;13.08;65.08
51617;BME280;37697;52.588;13.394;2023-03-14T10:09:32;98522.30;;;12.92;65.24
51617;BME280;37697;52.588;13.394;2023-03-14T10:14:51;98524.71;;;12.79;65.34
51617;BME280;37697;52.588;13.394;2023-03-14T10:20:32;98522.38;;;12.77;65.70
51617;BME280;37697;52.588;13.394;2023-03-14T10:25:40;98524.71;;;12.74;65.92
51617;BME280;37697;52.588;13.394;2023-03-14T10:30:58;98523.16;;;12.76;65.75
51617;BME280;37697;52.588;13.394;2023-03-14T10:36:20;98519.11;;;12.73;65.29
51617;BME280;37697;52.588;13.394;2023-03-14T10:41:32;98527.45;;;12.73;65.41
51617;BME280;37697;52.588;13.394;2023-03-14T10:46:38;98527.02;;;12.71;65.21
51617;BME280;37697;52.588;13.394;2023-03-14T10:52:15;98530.19;;;12.60;65.06
51617;BME280;37697;52.588;13.394;2023-03-14T10:57:41;98533.66;;;12.56;65.20
51617;BME280;37697;52.588;13.394;2023-03-14T11:03:11;98531.58;;;12.59;65.01
51617;BME280;37697;52.588;13.394;2023-03-14T11:08:44;98526.13;;;12.59;64.60
51617;BME280;37697;52.588;13.394;2023-03-14T11:14:04;98527.14;;;12.57;64.38
51617;BME280;37697;52.588;13.394;2023-03-14T11:19:49;98525.44;;;12.55;64.44
51617;BME280;37697;52.588;13.394;2023-03-14T11:25:21;98523.41;;;12.50;64.48
51617;BME280;37697;52.588;13.394;2023-03-14T11:30:52;98519.73;;;12.47;64.10
51617;BME280;37697;52.588;13.394;2023-03-14T11:36:10;98517.08;;;12.49;64.78
51617;BME280;37697;52.588;13.394;2023-03-14T11:41:38;98513.40;;;12.56;65.00
51617;BME280;37697;52.588;13.394;2023-03-14T11:46:46;98514.20;;;12.62;64.44
51617;BME280;37697;52.588;13.394;2023-03-14T11:52:19;98513.20;;;12.63;64.20
51617;BME280;37697;52.588;13.394;2023-03-14T11:57:26;98511.27;;;12.61;64.73
51617;BME280;37697;52.588;13.394;2023-03-14T12:02:59;98510.49;;;12.58;64.96
51617;BME280;37697;52.588;13.394;2023-03-14T12:08:39;98502.09;;;12.64;65.46
51617;BME280;37697;52.588;13.394;2023-03-14T12:13:50;98501.98;;;12.63;65.46
51617;BME280;37697;52.588;13.394;2023-03-14T12:19:27;98502.95;;;12.53;66.05
51617;BME280;37697;52.588;13.394;2023-03-14T12:24:56;98503.25;;;12.49;66.36
51617;BME280;37697;52.588;13.394;2023-03-14T12:30:29;98495.55;;;12.55;66.74
51617;BME280;37697;52.588;13.394;2023-03-14T12:35:59;98494.06;;;12.72;66.10
51617;BME280;37697;52.588;13.394;2023-03-14T12:41:28;98487.33;;;13.04;66.05
51617;BME280;37697;52.588;13.394;2023-03-14T12:59:13;98484.61;;;13.31;65.52
51617;BME280;37697;52.588;13.394;2023-03-14T13:04:50;98486.45;;;13.22;65.84
51617;BME280;37697;52.588;13.394;2023-03-14T13:10:22;98481.70;;;13.03;66.32
51617;BME280;37697;52.588;13.394;2023-03-14T13:15:49;98483.23;;;12.88;66.95
51617;BME280;37697;52.588;13.394;2023-03-14T13:21:17;98486.80;;;12.95;67.15
51617;BME280;37697;52.588;13.394;2023-03-14T13:26:44;98476.83;;;13.22;66.29
51617;BME280;37697;52.588;13.394;2023-03-14T13:32:16;98464.61;;;13.56;66.00
51617;BME280;37697;52.588;13.394;2023-03-14T13:37:42;98450.55;;;13.73;64.87
51617;BME280;37697;52.588;13.394;2023-03-14T13:43:18;98443.78;;;13.75;65.23
51617;BME280;37697;52.588;13.394;2023-03-14T13:48:48;98447.40;;;13.65;65.68
51617;BME280;37697;52.588;13.394;2023-03-14T13:54:17;98446.69;;;13.50;65.87
51617;BME280;37697;52.588;13.394;2023-03-14T13:59:43;98438.36;;;13.47;66.19
51617;BME280;37697;52.588;13.394;2023-03-14T14:05:11;98436.43;;;13.44;66.28
51617;BME280;37697;52.588;13.394;2023-03-14T14:10:40;98427.73;;;13.66;66.37
51617;BME280;37697;52.588;13.394;2023-03-14T14:16:07;98421.42;;;13.94;66.14
51617;BME280;37697;52.588;13.394;2023-03-14T14:21:32;98412.98;;;14.04;65.17
51617;BME280;37697;52.588;13.394;2023-03-14T14:27:03;98410.99;;;14.13;64.68
51617;BME280;37697;52.588;13.394;2023-03-14T14:32:38;98410.19;;;13.92;63.75
51617;BME280;37697;52.588;13.394;2023-03-14T14:38:12;98412.75;;;13.77;64.12
51617;BME280;37697;52.588;13.394;2023-03-14T14:43:41;98419.36;;;13.66;64.78
51617;BME280;37697;52.588;13.394;2023-03-14T14:49:12;98418.10;;;13.43;65.67
51617;BME280;37697;52.588;13.394;2023-03-14T14:54:44;98416.52;;;13.18;66.60
51617;BME280;37697;52.588;13.394;2023-03-14T15:00:10;98429.98;;;12.94;67.57
51617;BME280;37697;52.588;13.394;2023-03-14T15:05:42;98443.66;;;12.51;68.21
51617;BME280;37697;52.588;13.394;2023-03-14T15:11:10;98445.95;;;11.84;69.87
51617;BME280;37697;52.588;13.394;2023-03-14T15:16:41;98484.34;;;11.47;71.84
51617;BME280;37697;52.588;13.394;2023-03-14T15:22:12;98572.22;;;10.44;69.93
51617;BME280;37697;52.588;13.394;2023-03-14T15:27:38;98640.55;;;8.58;70.49
51617;BME280;37697;52.588;13.394;2023-03-14T15:33:05;98670.46;;;7.47;72.80
51617;BME280;37697;52.588;13.394;2023-03-14T15:38:30;98706.40;;;6.72;74.49
51617;BME280;37697;52.588;13.394;2023-03-14T15:43:57;98759.06;;;6.05;75.50
51617;BME280;37697;52.588;13.394;2023-03-14T15:49:23;98835.92;;;5.61;75.11
51617;BME280;37697;52.588;13.394;2023-03-14T15:54:49;98869.39;;;4.53;73.25
51617;BME280;37697;52.588;13.394;2023-03-14T16:00:17;98888.66;;;3.54;74.31
51617;BME280;37697;52.588;13.394;2023-03-14T16:05:44;98919.26;;;3.04;75.63
51617;BME280;37697;52.588;13.394;2023-03-14T16:11:11;98962.69;;;2.77;76.26
51617;BME280;37697;52.588;13.394;2023-03-14T16:16:37;98999.88;;;2.42;76.54
51617;BME280;37697;52.588;13.394;2023-03-14T16:22:03;99026.50;;;2.11;77.34
51617;BME280;37697;52.588;13.394;2023-03-14T16:27:29;99062.21;;;1.91;78.05
51617;BME280;37697;52.588;13.394;2023-03-14T16:33:12;99108.55;;;1.71;78.58
51617;BME280;37697;52.588;13.394;2023-03-14T16:38:40;99111.91;;;1.50;78.68
51617;BME280;37697;52.588;13.394;2023-03-14T16:44:06;99118.43;;;1.25;78.68
51617;BME280;37697;52.588;13.394;2023-03-14T16:49:32;99132.65;;;1.16;79.06
51617;BME280;37697;52.588;13.394;2023-03-14T16:54:57;99151.84;;;1.17;79.67
51617;BME280;37697;52.588;13.394;2023-03-14T17:00:26;99182.86;;;1.18;80.04
51617;BME280;37697;52.588;13.394;2023-03-14T17:05:52;99226.44;;;1.10;80.04
51617;BME280;37697;52.588;13.394;2023-03-14T17:11:18;99257.85;;;1.07;80.36
51617;BME280;37697;52.588;13.394;2023-03-14T17:16:44;99277.71;;;1.03;80.34
51617;BME280;37697;52.588;13.394;2023-03-14T17:22:11;99294.80;;;0.99;80.67
51617;BME280;37697;52.588;13.394;2023-03-14T17:27:37;99326.65;;;0.98;80.81
51617;BME280;37697;52.588;13.394;2023-03-14T17:33:03;99352.38;;;1.05;81.35
51617;BME280;37697;52.588;13.394;2023-03-14T17:38:31;99377.59;;;1.09;81.84
51617;BME280;37697;52.588;13.394;2023-03-14T17:44:02;99384.52;;;1.15;82.19
51617;BME280;37697;52.588;13.394;2023-03-14T17:49:28;99404.59;;;1.22;82.47
51617;BME280;37697;52.588;13.394;2023-03-14T17:54:54;99418.67;;;1.29;82.81
51617;BME280;37697;52.588;13.394;2023-03-14T18:00:22;99440.52;;;1.42;82.99
51617;BME280;37697;52.588;13.394;2023-03-14T18:05:48;99464.11;;;1.47;82.97
51617;BME280;37697;52.588;13.394;2023-03-14T18:11:14;99494.66;;;1.54;83.27
51617;BME280;37697;52.588;13.394;2023-03-14T18:16:40;99504.21;;;1.58;83.48
51617;BME280;37697;52.588;13.394;2023-03-14T18:22:06;99510.33;;;1.60;83.68
51617;BME280;37697;52.588;13.394;2023-03-14T18:27:22;99531.67;;;1.63;83.93
51617;BME280;37697;52.588;13.394;2023-03-14T18:32:48;99542.19;;;1.63;84.07
51617;BME280;37697;52.588;13.394;2023-03-14T18:37:57;99554.58;;;1.68;84.23
51617;BME280;37697;52.588;13.394;2023-03-14T18:43:22;99559.45;;;1.71;84.40
51617;BME280;37697;52.588;13.394;2023-03-14T18:48:41;99564.22;;;1.75;84.59
51617;BME280;37697;52.588;13.394;2023-03-14T18:53:49;99582.52;;;1.79;84.79
51617;BME280;37697;52.588;13.394;2023-03-14T18:59:13;99599.84;;;1.79;85.03
51617;BME280;37697;52.588;13.394;2023-03-14T19:04:22;99620.70;;;1.76;85.60
51617;BME280;37697;52.588;13.394;2023-03-14T19:09:48;99626.94;;;1.76;85.52
51617;BME280;37697;52.588;13.394;2023-03-14T19:15:14;99650.82;;;1.78;85.70
51617;BME280;37697;52.588;13.394;2023-03-14T19:20:40;99656.69;;;1.79;85.87
51617;BME280;37697;52.588;13.394;2023-03-14T19:26:07;99666.20;;;1.82;85.94
51617;BME280;37697;52.588;13.394;2023-03-14T19:31:26;99680.31;;;1.85;85.86
51617;BME280;37697;52.588;13.394;2023-03-14T19:36:52;99694.48;;;1.87;85.90
51617;BME280;37697;52.588;13.394;2023-03-14T19:41:58;99705.29;;;1.88;86.00
51617;BME280;37697;52.588;13.394;2023-03-14T19:47:17;99711.16;;;1.89;85.90
51617;BME280;37697;52.588;13.394;2023-03-14T19:52:27;99734.77;;;1.88;85.60
51617;BME280;37697;52.588;13.394;2023-03-14T19:57:53;99751.56;;;1.87;85.56
51617;BME280;37697;52.588;13.394;2023-03-14T20:03:18;99760.67;;;1.83;85.44
51617;BME280;37697;52.588;13.394;2023-03-14T20:08:28;99781.31;;;1.80;85.42
51617;BME280;37697;52.588;13.394;2023-03-14T20:13:44;99798.89;;;1.75;85.09
51617;BME280;37697;52.588;13.394;2023-03-14T20:19:01;99816.02;;;1.68;84.84
51617;BME280;37697;52.588;13.394;2023-03-14T20:24:08;99829.14;;;1.62;84.40
51617;BME280;37697;52.588;13.394;2023-03-14T20:29:34;99846.00;;;1.57;84.29
51617;BME280;37697;52.588;13.394;2023-03-14T20:34:49;99858.61;;;1.49;84.17
51617;BME280;37697;52.588;13.394;2023-03-14T20:39:55;99865.33;;;1.44;84.14
51617;BME280;37697;52.588;13.394;2023-03-14T20:45:20;99885.17;;;1.40;84.03
51617;BME280;37697;52.588;13.394;2023-03-14T20:50:39;99905.27;;;1.37;83.82
51617;BME280;37697;52.588;13.394;2023-03-14T20:56:06;99913.40;;;1.33;83.41
51617;BME280;37697;52.588;13.394;2023-03-14T21:01:24;99916.09;;;1.30;83.33
51617;BME280;37697;52.588;13.394;2023-03-14T21:06:33;99923.83;;;1.27;83.19
51617;BME280;37697;52.588;13.394;2023-03-14T21:11:59;99926.01;;;1.19;82.93
51617;BME280;37697;52.588;13.394;2023-03-14T21:17:25;99933.35;;;1.14;82.74
51617;BME280;37697;52.588;13.394;2023-03-14T21:22:51;99939.91;;;1.08;82.31
51617;BME280;37697;52.588;13.394;2023-03-14T21:27:59;99949.08;;;1.01;82.07
51617;BME280;37697;52.588;13.394;2023-03-14T21:33:25;99960.89;;;0.99;81.79
51617;BME280;37697;52.588;13.394;2023-03-14T21:38:51;99972.26;;;0.96;81.48
51617;BME280;37697;52.588;13.394;2023-03-14T21:44:00;99984.20;;;0.91;81.27
51617;BME280;37697;52.588;13.394;2023-03-14T21:49:05;99991.14;;;0.86;81.13
51617;BME280;37697;52.588;13.394;2023-03-14T21:54:31;99999.88;;;0.81;81.33
51617;BME280;37697;52.588;13.394;2023-03-14T21:59:40;100011.11;;;0.76;81.16
51617;BME280;37697;52.588;13.394;2023-03-14T22:05:08;100022.50;;;0.71;81.05
51617;BME280;37697;52.588;13.394;2023-03-14T22:10:34;100024.54;;;0.68;81.07
51617;BME280;37697;52.588;13.394;2023-03-14T22:16:00;100026.77;;;0.64;80.95
51617;BME280;37697;52.588;13.394;2023-03-14T22:21:26;100035.97;;;0.58;80.92
51617;BME280;37697;52.588;13.394;2023-03-14T22:26:44;100041.95;;;0.55;80.79
51617;BME280;37697;52.588;13.394;2023-03-14T22:31:59;100052.88;;;0.53;80.79
51617;BME280;37697;52.588;13.394;2023-03-14T22:37:24;100063.19;;;0.51;80.79
51617;BME280;37697;52.588;13.394;2023-03-14T22:42:52;100078.05;;;0.47;80.65
51617;BME280;37697;52.588;13.394;2023-03-14T22:48:18;100082.67;;;0.44;80.67
51617;BME280;37697;52.588;13.394;2023-03-14T22:53:37;100089.95;;;0.41;80.62
51617;BME280;37697;52.588;13.394;2023-03-14T22:59:03;100101.38;;;0.41;80.64
51617;BME280;37697;52.588;13.394;2023-03-14T23:04:29;100104.63;;;0.41;80.73
51617;BME280;37697;52.588;13.394;2023-03-14T23:09:55;100109.80;;;0.42;80.70
51617;BME280;37697;52.588;13.394;2023-03-14T23:15:20;100119.51;;;0.39;80.53
51617;BME280;37697;52.588;13.394;2023-03-14T23:20:46;100126.02;;;0.34;80.41
51617;BME280;37697;52.588;13.394;2023-03-14T23:26:14;100131.45;;;0.36;80.55
51617;BME280;37697;52.588;13.394;2023-03-14T23:31:40;100136.33;;;0.35;80.58
51617;BME280;37697;52.588;13.394;2023-03-14T23:37:06;100145.82;;;0.33;80.53
51617;BME280;37697;52.588;13.394;2023-03-14T23:42:32;100150.58;;;0.29;80.48
51617;BME280;37697;52.588;13.394;2023-03-14T23:47:58;100160.20;;;0.26;80.36
51617;BME280;37697;52.588;13.394;2023-03-14T23:53:24;100164.80;;;0.27;80.39
51617;BME280;37697;52.588;13.394;2023-03-14T23:58:51;100170.65;;;0.27;80.40
